sensor_id;sensor_type;location;lat;lon;timestamp;temperature;humidity
6822;DHT22;3449;48.728;8.968;2022-11-20T00:01:06;3.70;99.90
6822;DHT22;3449;48.728;8.968;2022-11-20T00:03:33;3.70;99.90
6822;DHT22;3449;48.728;8.968;2022-11-20T00:06:01;3.70;99.90
6822;DHT22;3449;48.728;8.968;2022-11-20T00:08:28;3.70;99.90
6822;DHT22;3449;48.728;8.968;2022-11-20T00:10:55;3.70;99.90
6822;DHT22;3449;48.728;8.968;2022-11-20T00:13:22;3.70;99.90
6822;DHT22;3449;48.728;8.968;2022-11-20T00:15:57;3.70;99.90
6822;DHT22;3449;48.728;8.968;2022-11-20T00:18:24;3.70;99.90
6822;DHT22;3449;48.728;8.968;2022-11-20T00:20:51;3.70;99.90
6822;DHT22;3449;48.728;8.968;2022-11-20T00:23:19;3.70;99.90
6822;DHT22;3449;48.728;8.968;2022-11-20T00:25:46;3.70;99.90
6822;DHT22;3449;48.728;8.968;2022-11-20T00:28:13;3.80;99.90
6822;DHT22;3449;48.728;8.968;2022-11-20T00:30:40;3.80;99.90
6822;DHT22;3449;48.728;8.968;2022-11-20T00:33:07;3.80;99.90
6822;DHT22;3449;48.728;8.968;2022-11-20T00:35:34;3.80;99.90
6822;DHT22;3449;48.728;8.968;2022-11-20T00:38:01;3.80;99.90
6822;DHT22;3449;48.728;8.968;2022-11-20T00:40:29;3.80;99.90
6822;DHT22;3449;48.728;8.968;2022-11-20T00:42:56;3.80;99.90
6822;DHT22;3449;48.728;8.968;2022-11-20T00:45:23;3.80;99.90
6822;DHT22;3449;48.728;8.968;2022-11-20T00:47:49;3.90;99.90
6822;DHT22;3449;48.728;8.968;2022-11-20T00:50:16;3.80;99.90
6822;DHT22;3449;48.728;8.968;2022-11-20T00:52:43;3.80;99.90
6822;DHT22;3449;48.728;8.968;2022-11-20T00:55:10;3.80;99.90
6822;DHT22;3449;48.728;8.968;2022-11-20T00:57:38;3.80;99.90
6822;DHT22;3449;48.728;8.968;2022-11-20T01:00:06;3.70;99.90
6822;DHT22;3449;48.728;8.968;2022-11-20T01:02:33;3.70;99.90
6822;DHT22;3449;48.728;8.968;2022-11-20T01:05:00;3.70;99.90
6822;DHT22;3449;48.728;8.968;2022-11-20T01:07:27;3.70;99.90
6822;DHT22;3449;48.728;8.968;2022-11-20T01:09:54;3.70;99.90
6822;DHT22;3449;48.728;8.968;2022-11-20T01:12:21;3.60;99.90
6822;DHT22;3449;48.728;8.968;2022-11-20T01:14:49;3.60;99.90
6822;DHT22;3449;48.728;8.968;2022-11-20T01:17:16;3.60;99.90
6822;DHT22;3449;48.728;8.968;2022-11-20T01:19:43;3.60;99.90
6822;DHT22;3449;48.728;8.968;2022-11-20T01:22:10;3.60;99.90
6822;DHT22;3449;48.728;8.968;2022-11-20T01:24:37;3.50;99.90
6822;DHT22;3449;48.728;8.968;2022-11-20T01:27:03;3.50;99.90
6822;DHT22;3449;48.728;8.968;2022-11-20T01:29:30;3.40;99.90
6822;DHT22;3449;48.728;8.968;2022-11-20T01:31:58;3.40;99.90
6822;DHT22;3449;48.728;8.968;2022-11-20T01:34:25;3.40;99.90
6822;DHT22;3449;48.728;8.968;2022-11-20T01:36:53;3.30;99.90
6822;DHT22;3449;48.728;8.968;2022-11-20T01:39:21;3.30;99.90
6822;DHT22;3449;48.728;8.968;2022-11-20T01:41:49;3.20;99.90
6822;DHT22;3449;48.728;8.968;2022-11-20T01:44:55;3.20;99.90
6822;DHT22;3449;48.728;8.968;2022-11-20T01:47:30;3.10;99.90
6822;DHT22;3449;48.728;8.968;2022-11-20T01:50:05;3.10;99.90
6822;DHT22;3449;48.728;8.968;2022-11-20T01:52:36;3.10;99.90
6822;DHT22;3449;48.728;8.968;2022-11-20T01:55:07;3.00;99.90
6822;DHT22;3449;48.728;8.968;2022-11-20T01:57:36;3.00;99.90
6822;DHT22;3449;48.728;8.968;2022-11-20T02:00:07;2.90;99.90
6822;DHT22;3449;48.728;8.968;2022-11-20T02:02:37;2.90;99.90
6822;DHT22;3449;48.728;8.968;2022-11-20T02:05:10;2.80;99.90
6822;DHT22;3449;48.728;8.968;2022-11-20T02:07:39;2.80;99.90
6822;DHT22;3449;48.728;8.968;2022-11-20T02:10:06;2.80;99.90
6822;DHT22;3449;48.728;8.968;2022-11-20T02:12:33;2.80;99.90
6822;DHT22;3449;48.728;8.968;2022-11-20T02:15:17;2.80;99.90
6822;DHT22;3449;48.728;8.968;2022-11-20T02:17:45;2.70;99.90
6822;DHT22;3449;48.728;8.968;2022-11-20T02:20:13;2.70;99.90
6822;DHT22;3449;48.728;8.968;2022-11-20T02:22:47;2.70;99.90
6822;DHT22;3449;48.728;8.968;2022-11-20T02:25:17;2.70;99.90
6822;DHT22;3449;48.728;8.968;2022-11-20T02:27:45;2.70;99.90
6822;DHT22;3449;48.728;8.968;2022-11-20T02:30:12;2.70;99.90
6822;DHT22;3449;48.728;8.968;2022-11-20T02:32:40;2.70;99.90
6822;DHT22;3449;48.728;8.968;2022-11-20T02:35:08;2.70;99.90
6822;DHT22;3449;48.728;8.968;2022-11-20T02:37:38;2.80;99.90
6822;DHT22;3449;48.728;8.968;2022-11-20T02:40:06;2.80;99.90
6822;DHT22;3449;48.728;8.968;2022-11-20T02:42:35;2.90;99.90
6822;DHT22;3449;48.728;8.968;2022-11-20T02:45:02;3.00;99.90
6822;DHT22;3449;48.728;8.968;2022-11-20T02:47:29;3.10;99.90
6822;DHT22;3449;48.728;8.968;2022-11-20T02:49:56;3.20;99.90
6822;DHT22;3449;48.728;8.968;2022-11-20T02:52:24;3.20;99.90
6822;DHT22;3449;48.728;8.968;2022-11-20T02:54:50;3.20;99.90
6822;DHT22;3449;48.728;8.968;2022-11-20T02:57:17;3.20;99.90
6822;DHT22;3449;48.728;8.968;2022-11-20T02:59:46;3.20;99.90
6822;DHT22;3449;48.728;8.968;2022-11-20T03:02:12;3.20;99.90
6822;DHT22;3449;48.728;8.968;2022-11-20T03:04:39;3.20;99.90
6822;DHT22;3449;48.728;8.968;2022-11-20T03:07:07;3.20;99.90
6822;DHT22;3449;48.728;8.968;2022-11-20T03:09:35;3.20;99.90
6822;DHT22;3449;48.728;8.968;2022-11-20T03:12:02;3.20;99.90
6822;DHT22;3449;48.728;8.968;2022-11-20T03:14:29;3.10;99.90
6822;DHT22;3449;48.728;8.968;2022-11-20T03:16:57;3.10;99.90
6822;DHT22;3449;48.728;8.968;2022-11-20T03:19:24;3.10;99.90
6822;DHT22;3449;48.728;8.968;2022-11-20T03:21:51;3.10;99.90
6822;DHT22;3449;48.728;8.968;2022-11-20T03:24:18;3.10;99.90
6822;DHT22;3449;48.728;8.968;2022-11-20T03:26:44;3.10;99.90
6822;DHT22;3449;48.728;8.968;2022-11-20T03:29:11;3.00;99.90
6822;DHT22;3449;48.728;8.968;2022-11-20T03:31:39;3.00;99.90
6822;DHT22;3449;48.728;8.968;2022-11-20T03:34:09;2.90;99.90
6822;DHT22;3449;48.728;8.968;2022-11-20T03:36:38;2.90;99.90
6822;DHT22;3449;48.728;8.968;2022-11-20T03:39:05;2.90;99.90
6822;DHT22;3449;48.728;8.968;2022-11-20T03:41:36;2.80;99.90
6822;DHT22;3449;48.728;8.968;2022-11-20T03:44:05;2.80;99.90
6822;DHT22;3449;48.728;8.968;2022-11-20T03:46:32;2.70;99.90
6822;DHT22;3449;48.728;8.968;2022-11-20T03:48:59;2.70;99.90
6822;DHT22;3449;48.728;8.968;2022-11-20T03:51:29;2.80;99.90
6822;DHT22;3449;48.728;8.968;2022-11-20T03:53:58;2.80;99.90
6822;DHT22;3449;48.728;8.968;2022-11-20T03:56:26;2.70;99.90
6822;DHT22;3449;48.728;8.968;2022-11-20T03:58:53;2.80;99.90
6822;DHT22;3449;48.728;8.968;2022-11-20T04:01:22;2.80;99.90
6822;DHT22;3449;48.728;8.968;2022-11-20T04:03:51;2.80;99.90
6822;DHT22;3449;48.728;8.968;2022-11-20T04:06:20;2.80;99.90
6822;DHT22;3449;48.728;8.968;2022-11-20T04:08:49;2.80;99.90
6822;DHT22;3449;48.728;8.968;2022-11-20T04:11:18;2.80;99.90
6822;DHT22;3449;48.728;8.968;2022-11-20T04:13:48;2.70;99.90
6822;DHT22;3449;48.728;8.968;2022-11-20T04:16:16;2.80;99.90
6822;DHT22;3449;48.728;8.968;2022-11-20T04:18:43;2.80;99.90
6822;DHT22;3449;48.728;8.968;2022-11-20T04:21:10;2.70;99.90
6822;DHT22;3449;48.728;8.968;2022-11-20T04:23:37;2.80;99.90
6822;DHT22;3449;48.728;8.968;2022-11-20T04:26:08;2.80;99.90
6822;DHT22;3449;48.728;8.968;2022-11-20T04:28:35;2.80;99.90
6822;DHT22;3449;48.728;8.968;2022-11-20T04:31:04;2.90;99.90
6822;DHT22;3449;48.728;8.968;2022-11-20T04:33:32;2.80;99.90
6822;DHT22;3449;48.728;8.968;2022-11-20T04:36:03;2.80;99.90
6822;DHT22;3449;48.728;8.968;2022-11-20T04:38:30;2.70;99.90
6822;DHT22;3449;48.728;8.968;2022-11-20T04:40:58;2.80;99.90
6822;DHT22;3449;48.728;8.968;2022-11-20T04:43:27;2.80;99.90
6822;DHT22;3449;48.728;8.968;2022-11-20T04:45:54;2.80;99.90
6822;DHT22;3449;48.728;8.968;2022-11-20T04:48:22;2.90;99.90
6822;DHT22;3449;48.728;8.968;2022-11-20T04:50:49;2.90;99.90
6822;DHT22;3449;48.728;8.968;2022-11-20T04:53:16;2.90;99.90
6822;DHT22;3449;48.728;8.968;2022-11-20T04:55:43;2.90;99.90
6822;DHT22;3449;48.728;8.968;2022-11-20T04:58:10;3.00;99.90
6822;DHT22;3449;48.728;8.968;2022-11-20T05:00:38;3.00;99.90
6822;DHT22;3449;48.728;8.968;2022-11-20T05:03:05;3.10;99.90
6822;DHT22;3449;48.728;8.968;2022-11-20T05:05:33;3.10;99.90
6822;DHT22;3449;48.728;8.968;2022-11-20T05:08:00;3.20;99.90
6822;DHT22;3449;48.728;8.968;2022-11-20T05:10:27;3.20;99.90
6822;DHT22;3449;48.728;8.968;2022-11-20T05:12:54;3.30;99.90
6822;DHT22;3449;48.728;8.968;2022-11-20T05:15:21;3.30;99.90
6822;DHT22;3449;48.728;8.968;2022-11-20T05:17:49;3.30;99.90
6822;DHT22;3449;48.728;8.968;2022-11-20T05:20:17;3.40;99.90
6822;DHT22;3449;48.728;8.968;2022-11-20T05:22:45;3.40;99.90
6822;DHT22;3449;48.728;8.968;2022-11-20T05:25:12;3.40;99.90
6822;DHT22;3449;48.728;8.968;2022-11-20T05:27:39;3.40;99.90
6822;DHT22;3449;48.728;8.968;2022-11-20T05:30:07;3.40;99.90
6822;DHT22;3449;48.728;8.968;2022-11-20T05:32:34;3.40;99.90
6822;DHT22;3449;48.728;8.968;2022-11-20T05:35:02;3.40;99.90
6822;DHT22;3449;48.728;8.968;2022-11-20T05:37:29;3.40;99.90
6822;DHT22;3449;48.728;8.968;2022-11-20T05:39:56;3.40;99.90
6822;DHT22;3449;48.728;8.968;2022-11-20T05:42:23;3.50;99.90
6822;DHT22;3449;48.728;8.968;2022-11-20T05:44:59;3.50;99.90
6822;DHT22;3449;48.728;8.968;2022-11-20T05:47:27;3.50;99.90
6822;DHT22;3449;48.728;8.968;2022-11-20T05:49:54;3.50;99.90
6822;DHT22;3449;48.728;8.968;2022-11-20T05:52:22;3.50;99.90
6822;DHT22;3449;48.728;8.968;2022-11-20T05:54:49;3.50;99.90
6822;DHT22;3449;48.728;8.968;2022-11-20T05:57:16;3.60;99.90
6822;DHT22;3449;48.728;8.968;2022-11-20T05:59:43;3.60;99.90
6822;DHT22;3449;48.728;8.968;2022-11-20T06:02:10;3.60;99.90
6822;DHT22;3449;48.728;8.968;2022-11-20T06:04:37;3.70;99.90
6822;DHT22;3449;48.728;8.968;2022-11-20T06:07:05;3.70;99.90
6822;DHT22;3449;48.728;8.968;2022-11-20T06:09:33;3.70;99.90
6822;DHT22;3449;48.728;8.968;2022-11-20T06:12:00;3.80;99.90
6822;DHT22;3449;48.728;8.968;2022-11-20T06:14:27;3.80;99.90
6822;DHT22;3449;48.728;8.968;2022-11-20T06:16:54;3.80;99.90
6822;DHT22;3449;48.728;8.968;2022-11-20T06:19:21;3.90;99.90
6822;DHT22;3449;48.728;8.968;2022-11-20T06:21:48;3.90;99.90
6822;DHT22;3449;48.728;8.968;2022-11-20T06:24:16;3.90;99.90
6822;DHT22;3449;48.728;8.968;2022-11-20T06:26:44;4.00;99.90
6822;DHT22;3449;48.728;8.968;2022-11-20T06:29:11;4.00;99.90
6822;DHT22;3449;48.728;8.968;2022-11-20T06:31:38;4.00;99.90
6822;DHT22;3449;48.728;8.968;2022-11-20T06:34:05;4.10;99.90
6822;DHT22;3449;48.728;8.968;2022-11-20T06:36:33;4.10;99.90
6822;DHT22;3449;48.728;8.968;2022-11-20T06:39:00;4.10;99.90
6822;DHT22;3449;48.728;8.968;2022-11-20T06:41:27;4.10;99.90
6822;DHT22;3449;48.728;8.968;2022-11-20T06:43:56;4.10;99.90
6822;DHT22;3449;48.728;8.968;2022-11-20T06:46:23;4.10;99.90
6822;DHT22;3449;48.728;8.968;2022-11-20T06:48:50;4.10;99.90
6822;DHT22;3449;48.728;8.968;2022-11-20T06:51:17;4.10;99.90
6822;DHT22;3449;48.728;8.968;2022-11-20T06:53:44;4.10;99.90
6822;DHT22;3449;48.728;8.968;2022-11-20T06:56:11;4.10;99.90
6822;DHT22;3449;48.728;8.968;2022-11-20T06:58:38;4.10;99.90
6822;DHT22;3449;48.728;8.968;2022-11-20T07:01:07;4.10;99.90
6822;DHT22;3449;48.728;8.968;2022-11-20T07:03:35;4.10;99.90
6822;DHT22;3449;48.728;8.968;2022-11-20T07:06:03;4.10;99.90
6822;DHT22;3449;48.728;8.968;2022-11-20T07:08:30;4.20;99.90
6822;DHT22;3449;48.728;8.968;2022-11-20T07:10:57;4.20;99.90
6822;DHT22;3449;48.728;8.968;2022-11-20T07:13:25;4.20;99.90
6822;DHT22;3449;48.728;8.968;2022-11-20T07:15:52;4.20;99.90
6822;DHT22;3449;48.728;8.968;2022-11-20T07:18:20;4.20;99.90
6822;DHT22;3449;48.728;8.968;2022-11-20T07:20:47;4.20;99.90
6822;DHT22;3449;48.728;8.968;2022-11-20T07:23:14;4.20;99.90
6822;DHT22;3449;48.728;8.968;2022-11-20T07:25:41;4.20;99.90
6822;DHT22;3449;48.728;8.968;2022-11-20T07:28:08;4.20;99.90
6822;DHT22;3449;48.728;8.968;2022-11-20T07:30:36;4.20;99.90
6822;DHT22;3449;48.728;8.968;2022-11-20T07:33:03;4.20;99.90
6822;DHT22;3449;48.728;8.968;2022-11-20T07:35:31;4.20;99.90
6822;DHT22;3449;48.728;8.968;2022-11-20T07:37:58;4.20;99.90
6822;DHT22;3449;48.728;8.968;2022-11-20T07:40:25;4.30;99.90
6822;DHT22;3449;48.728;8.968;2022-11-20T07:42:54;4.40;99.90
6822;DHT22;3449;48.728;8.968;2022-11-20T07:45:23;4.40;99.90
6822;DHT22;3449;48.728;8.968;2022-11-20T07:47:50;4.50;99.90
6822;DHT22;3449;48.728;8.968;2022-11-20T07:50:18;4.50;99.90
6822;DHT22;3449;48.728;8.968;2022-11-20T07:52:46;4.50;99.90
6822;DHT22;3449;48.728;8.968;2022-11-20T07:55:13;4.60;99.90
6822;DHT22;3449;48.728;8.968;2022-11-20T07:57:40;4.60;99.90
6822;DHT22;3449;48.728;8.968;2022-11-20T08:00:09;4.70;99.90
6822;DHT22;3449;48.728;8.968;2022-11-20T08:02:37;4.80;99.90
6822;DHT22;3449;48.728;8.968;2022-11-20T08:05:05;4.80;99.90
6822;DHT22;3449;48.728;8.968;2022-11-20T08:07:35;4.90;99.90
6822;DHT22;3449;48.728;8.968;2022-11-20T08:10:05;4.90;99.90
6822;DHT22;3449;48.728;8.968;2022-11-20T08:12:32;4.90;99.90
6822;DHT22;3449;48.728;8.968;2022-11-20T08:15:16;4.90;99.90
6822;DHT22;3449;48.728;8.968;2022-11-20T08:17:43;5.00;99.90
6822;DHT22;3449;48.728;8.968;2022-11-20T08:20:10;5.00;99.90
6822;DHT22;3449;48.728;8.968;2022-11-20T08:22:37;5.00;99.90
6822;DHT22;3449;48.728;8.968;2022-11-20T08:25:06;5.10;99.90
6822;DHT22;3449;48.728;8.968;2022-11-20T08:27:33;5.10;99.90
6822;DHT22;3449;48.728;8.968;2022-11-20T08:30:00;5.10;99.90
6822;DHT22;3449;48.728;8.968;2022-11-20T08:32:27;5.10;99.90
6822;DHT22;3449;48.728;8.968;2022-11-20T08:34:54;5.20;99.90
6822;DHT22;3449;48.728;8.968;2022-11-20T08:37:21;5.30;99.90
6822;DHT22;3449;48.728;8.968;2022-11-20T08:39:48;5.30;99.90
6822;DHT22;3449;48.728;8.968;2022-11-20T08:42:16;5.30;99.90
6822;DHT22;3449;48.728;8.968;2022-11-20T08:44:43;5.40;99.90
6822;DHT22;3449;48.728;8.968;2022-11-20T08:47:10;5.40;99.90
6822;DHT22;3449;48.728;8.968;2022-11-20T08:49:36;5.40;99.90
6822;DHT22;3449;48.728;8.968;2022-11-20T08:52:03;5.40;99.90
6822;DHT22;3449;48.728;8.968;2022-11-20T08:54:31;5.50;99.90
6822;DHT22;3449;48.728;8.968;2022-11-20T08:56:57;5.60;99.90
6822;DHT22;3449;48.728;8.968;2022-11-20T08:59:26;5.60;99.90
6822;DHT22;3449;48.728;8.968;2022-11-20T09:01:53;5.60;99.90
6822;DHT22;3449;48.728;8.968;2022-11-20T09:04:19;5.60;99.90
6822;DHT22;3449;48.728;8.968;2022-11-20T09:06:46;5.60;99.90
6822;DHT22;3449;48.728;8.968;2022-11-20T09:09:16;5.50;99.90
6822;DHT22;3449;48.728;8.968;2022-11-20T09:11:43;5.50;99.90
6822;DHT22;3449;48.728;8.968;2022-11-20T09:14:10;5.50;99.90
6822;DHT22;3449;48.728;8.968;2022-11-20T09:16:38;5.50;99.90
6822;DHT22;3449;48.728;8.968;2022-11-20T09:19:05;5.60;99.90
6822;DHT22;3449;48.728;8.968;2022-11-20T09:21:32;5.60;99.90
6822;DHT22;3449;48.728;8.968;2022-11-20T09:23:58;5.60;99.90
6822;DHT22;3449;48.728;8.968;2022-11-20T09:26:25;5.50;99.90
6822;DHT22;3449;48.728;8.968;2022-11-20T09:28:52;5.50;99.90
6822;DHT22;3449;48.728;8.968;2022-11-20T09:31:23;5.50;99.90
6822;DHT22;3449;48.728;8.968;2022-11-20T09:33:52;5.50;99.90
6822;DHT22;3449;48.728;8.968;2022-11-20T09:36:19;5.40;99.90
6822;DHT22;3449;48.728;8.968;2022-11-20T09:38:46;5.40;99.90
6822;DHT22;3449;48.728;8.968;2022-11-20T09:41:34;5.30;99.90
6822;DHT22;3449;48.728;8.968;2022-11-20T09:44:12;5.40;99.90
6822;DHT22;3449;48.728;8.968;2022-11-20T09:46:51;5.40;99.90
6822;DHT22;3449;48.728;8.968;2022-11-20T09:49:27;5.40;99.90
6822;DHT22;3449;48.728;8.968;2022-11-20T09:52:00;5.40;99.90
6822;DHT22;3449;48.728;8.968;2022-11-20T09:54:31;5.30;99.90
6822;DHT22;3449;48.728;8.968;2022-11-20T09:57:00;5.30;99.90
6822;DHT22;3449;48.728;8.968;2022-11-20T09:59:37;5.40;99.90
6822;DHT22;3449;48.728;8.968;2022-11-20T10:02:15;5.30;99.90
6822;DHT22;3449;48.728;8.968;2022-11-20T10:04:47;5.40;99.90
6822;DHT22;3449;48.728;8.968;2022-11-20T10:07:19;5.40;99.90
6822;DHT22;3449;48.728;8.968;2022-11-20T10:09:52;5.40;99.90
6822;DHT22;3449;48.728;8.968;2022-11-20T10:12:27;5.40;99.90
6822;DHT22;3449;48.728;8.968;2022-11-20T10:15:05;5.40;99.90
6822;DHT22;3449;48.728;8.968;2022-11-20T10:17:54;5.50;99.90
6822;DHT22;3449;48.728;8.968;2022-11-20T10:20:28;5.50;99.90
6822;DHT22;3449;48.728;8.968;2022-11-20T10:23:17;5.50;99.90
6822;DHT22;3449;48.728;8.968;2022-11-20T10:25:51;5.60;99.90
6822;DHT22;3449;48.728;8.968;2022-11-20T10:28:34;5.60;99.90
6822;DHT22;3449;48.728;8.968;2022-11-20T10:31:10;5.60;99.90
6822;DHT22;3449;48.728;8.968;2022-11-20T10:33:40;5.70;99.90
6822;DHT22;3449;48.728;8.968;2022-11-20T10:36:14;5.60;99.90
6822;DHT22;3449;48.728;8.968;2022-11-20T10:38:46;5.60;99.90
6822;DHT22;3449;48.728;8.968;2022-11-20T10:41:19;5.60;99.90
6822;DHT22;3449;48.728;8.968;2022-11-20T10:44:00;5.60;99.90
6822;DHT22;3449;48.728;8.968;2022-11-20T10:46:35;5.60;99.90
6822;DHT22;3449;48.728;8.968;2022-11-20T10:49:09;5.50;99.90
6822;DHT22;3449;48.728;8.968;2022-11-20T10:51:47;5.50;99.90
6822;DHT22;3449;48.728;8.968;2022-11-20T10:54:21;5.50;99.90
6822;DHT22;3449;48.728;8.968;2022-11-20T10:56:51;5.60;99.90
6822;DHT22;3449;48.728;8.968;2022-11-20T10:59:47;5.70;99.90
6822;DHT22;3449;48.728;8.968;2022-11-20T11:02:18;5.80;99.90
6822;DHT22;3449;48.728;8.968;2022-11-20T11:04:47;5.90;99.90
6822;DHT22;3449;48.728;8.968;2022-11-20T11:07:19;6.00;99.90
6822;DHT22;3449;48.728;8.968;2022-11-20T11:09:49;6.10;99.90
6822;DHT22;3449;48.728;8.968;2022-11-20T11:12:17;6.10;99.90
6822;DHT22;3449;48.728;8.968;2022-11-20T11:14:46;6.10;99.90
6822;DHT22;3449;48.728;8.968;2022-11-20T11:17:26;6.20;99.90
6822;DHT22;3449;48.728;8.968;2022-11-20T11:20:06;6.30;99.90
6822;DHT22;3449;48.728;8.968;2022-11-20T11:22:43;6.40;99.90
6822;DHT22;3449;48.728;8.968;2022-11-20T11:25:26;6.60;99.90
6822;DHT22;3449;48.728;8.968;2022-11-20T11:27:57;7.00;99.90
6822;DHT22;3449;48.728;8.968;2022-11-20T11:30:25;7.70;99.90
6822;DHT22;3449;48.728;8.968;2022-11-20T11:33:06;8.30;99.90
6822;DHT22;3449;48.728;8.968;2022-11-20T11:35:33;8.90;99.90
6822;DHT22;3449;48.728;8.968;2022-11-20T11:38:06;9.40;99.90
6822;DHT22;3449;48.728;8.968;2022-11-20T11:40:39;9.80;99.90
6822;DHT22;3449;48.728;8.968;2022-11-20T11:43:17;9.70;99.90
6822;DHT22;3449;48.728;8.968;2022-11-20T11:46:00;9.40;99.90
6822;DHT22;3449;48.728;8.968;2022-11-20T11:48:27;9.40;99.90
6822;DHT22;3449;48.728;8.968;2022-11-20T11:50:53;9.70;99.90
6822;DHT22;3449;48.728;8.968;2022-11-20T11:53:23;9.60;99.90
6822;DHT22;3449;48.728;8.968;2022-11-20T11:55:57;9.70;99.90
6822;DHT22;3449;48.728;8.968;2022-11-20T11:58:43;9.60;99.90
6822;DHT22;3449;48.728;8.968;2022-11-20T12:01:21;9.60;99.90
6822;DHT22;3449;48.728;8.968;2022-11-20T12:03:54;9.40;99.90
6822;DHT22;3449;48.728;8.968;2022-11-20T12:06:23;9.60;99.90
6822;DHT22;3449;48.728;8.968;2022-11-20T12:08:55;9.80;99.90
6822;DHT22;3449;48.728;8.968;2022-11-20T12:11:30;10.20;99.90
6822;DHT22;3449;48.728;8.968;2022-11-20T12:14:03;10.50;99.90
6822;DHT22;3449;48.728;8.968;2022-11-20T12:16:36;10.70;99.90
6822;DHT22;3449;48.728;8.968;2022-11-20T12:19:08;10.80;99.90
6822;DHT22;3449;48.728;8.968;2022-11-20T12:21:43;10.80;99.90
6822;DHT22;3449;48.728;8.968;2022-11-20T12:24:35;10.90;99.90
6822;DHT22;3449;48.728;8.968;2022-11-20T12:27:22;11.00;99.90
6822;DHT22;3449;48.728;8.968;2022-11-20T12:30:00;11.00;99.90
6822;DHT22;3449;48.728;8.968;2022-11-20T12:32:56;11.20;99.90
6822;DHT22;3449;48.728;8.968;2022-11-20T12:35:52;11.00;99.90
6822;DHT22;3449;48.728;8.968;2022-11-20T12:41:26;10.80;99.90
6822;DHT22;3449;48.728;8.968;2022-11-20T12:44:23;10.40;99.90
6822;DHT22;3449;48.728;8.968;2022-11-20T12:47:17;10.10;99.90
6822;DHT22;3449;48.728;8.968;2022-11-20T12:49:50;9.80;99.90
6822;DHT22;3449;48.728;8.968;2022-11-20T12:52:30;9.80;99.90
6822;DHT22;3449;48.728;8.968;2022-11-20T12:55:23;9.60;99.90
6822;DHT22;3449;48.728;8.968;2022-11-20T12:57:58;9.50;99.90
6822;DHT22;3449;48.728;8.968;2022-11-20T13:00:30;9.30;99.90
6822;DHT22;3449;48.728;8.968;2022-11-20T13:03:13;9.20;99.90
6822;DHT22;3449;48.728;8.968;2022-11-20T13:05:53;8.90;99.90
6822;DHT22;3449;48.728;8.968;2022-11-20T13:08:24;8.50;99.90
6822;DHT22;3449;48.728;8.968;2022-11-20T13:10:57;8.10;99.90
6822;DHT22;3449;48.728;8.968;2022-11-20T13:13:33;7.80;99.90
6822;DHT22;3449;48.728;8.968;2022-11-20T13:16:05;7.70;99.90
6822;DHT22;3449;48.728;8.968;2022-11-20T13:18:37;7.60;99.90
6822;DHT22;3449;48.728;8.968;2022-11-20T13:21:17;7.50;99.90
6822;DHT22;3449;48.728;8.968;2022-11-20T13:23:44;7.50;99.90
6822;DHT22;3449;48.728;8.968;2022-11-20T13:26:17;7.40;99.90
6822;DHT22;3449;48.728;8.968;2022-11-20T13:28:48;7.50;99.90
6822;DHT22;3449;48.728;8.968;2022-11-20T13:31:30;7.40;99.90
6822;DHT22;3449;48.728;8.968;2022-11-20T13:33:58;7.40;99.90
6822;DHT22;3449;48.728;8.968;2022-11-20T13:36:28;7.40;99.90
6822;DHT22;3449;48.728;8.968;2022-11-20T13:38:56;7.30;99.90
6822;DHT22;3449;48.728;8.968;2022-11-20T13:41:24;7.20;99.90
6822;DHT22;3449;48.728;8.968;2022-11-20T13:43:59;7.10;99.90
6822;DHT22;3449;48.728;8.968;2022-11-20T13:46:36;6.90;99.90
6822;DHT22;3449;48.728;8.968;2022-11-20T13:49:07;6.80;99.90
6822;DHT22;3449;48.728;8.968;2022-11-20T13:51:41;6.60;99.90
6822;DHT22;3449;48.728;8.968;2022-11-20T13:54:39;6.50;99.90
6822;DHT22;3449;48.728;8.968;2022-11-20T13:57:21;6.50;99.90
6822;DHT22;3449;48.728;8.968;2022-11-20T13:59:57;6.50;99.90
6822;DHT22;3449;48.728;8.968;2022-11-20T14:02:27;6.50;99.90
6822;DHT22;3449;48.728;8.968;2022-11-20T14:04:58;6.60;99.90
6822;DHT22;3449;48.728;8.968;2022-11-20T14:07:32;6.60;99.90
6822;DHT22;3449;48.728;8.968;2022-11-20T14:10:01;6.60;99.90
6822;DHT22;3449;48.728;8.968;2022-11-20T14:12:30;6.60;99.90
6822;DHT22;3449;48.728;8.968;2022-11-20T14:14:59;6.60;99.90
6822;DHT22;3449;48.728;8.968;2022-11-20T14:17:31;6.60;99.90
6822;DHT22;3449;48.728;8.968;2022-11-20T14:20:00;6.50;99.90
6822;DHT22;3449;48.728;8.968;2022-11-20T14:22:27;6.50;99.90
6822;DHT22;3449;48.728;8.968;2022-11-20T14:25:04;6.60;99.90
6822;DHT22;3449;48.728;8.968;2022-11-20T14:27:34;6.40;99.90
6822;DHT22;3449;48.728;8.968;2022-11-20T14:30:05;6.40;99.90
6822;DHT22;3449;48.728;8.968;2022-11-20T14:32:35;6.40;99.90
6822;DHT22;3449;48.728;8.968;2022-11-20T14:35:08;6.30;99.90
6822;DHT22;3449;48.728;8.968;2022-11-20T14:37:37;6.30;99.90
6822;DHT22;3449;48.728;8.968;2022-11-20T14:40:21;6.30;99.90
6822;DHT22;3449;48.728;8.968;2022-11-20T14:42:48;6.30;99.90
6822;DHT22;3449;48.728;8.968;2022-11-20T14:45:17;6.30;99.90
6822;DHT22;3449;48.728;8.968;2022-11-20T14:47:45;6.20;99.90
6822;DHT22;3449;48.728;8.968;2022-11-20T14:50:16;6.20;99.90
6822;DHT22;3449;48.728;8.968;2022-11-20T14:52:50;6.20;99.90
6822;DHT22;3449;48.728;8.968;2022-11-20T14:55:26;6.20;99.90
6822;DHT22;3449;48.728;8.968;2022-11-20T14:57:55;6.20;99.90
6822;DHT22;3449;48.728;8.968;2022-11-20T15:00:25;6.10;99.90
6822;DHT22;3449;48.728;8.968;2022-11-20T15:02:52;6.10;99.90
6822;DHT22;3449;48.728;8.968;2022-11-20T15:05:20;6.10;99.90
6822;DHT22;3449;48.728;8.968;2022-11-20T15:07:49;6.00;99.90
6822;DHT22;3449;48.728;8.968;2022-11-20T15:10:21;5.90;99.90
6822;DHT22;3449;48.728;8.968;2022-11-20T15:12:50;5.90;99.90
6822;DHT22;3449;48.728;8.968;2022-11-20T15:15:21;5.80;99.90
6822;DHT22;3449;48.728;8.968;2022-11-20T15:17:49;5.70;99.90
6822;DHT22;3449;48.728;8.968;2022-11-20T15:20:17;5.70;99.90
6822;DHT22;3449;48.728;8.968;2022-11-20T15:22:44;5.60;99.90
6822;DHT22;3449;48.728;8.968;2022-11-20T15:25:12;5.60;99.90
6822;DHT22;3449;48.728;8.968;2022-11-20T15:27:40;5.50;99.90
6822;DHT22;3449;48.728;8.968;2022-11-20T15:30:13;5.50;99.90
6822;DHT22;3449;48.728;8.968;2022-11-20T15:32:40;5.40;99.90
6822;DHT22;3449;48.728;8.968;2022-11-20T15:35:09;5.40;99.90
6822;DHT22;3449;48.728;8.968;2022-11-20T15:37:37;5.40;99.90
6822;DHT22;3449;48.728;8.968;2022-11-20T15:40:05;5.30;99.90
6822;DHT22;3449;48.728;8.968;2022-11-20T15:42:33;5.30;99.90
6822;DHT22;3449;48.728;8.968;2022-11-20T15:45:01;5.30;99.90
6822;DHT22;3449;48.728;8.968;2022-11-20T15:47:29;5.20;99.90
6822;DHT22;3449;48.728;8.968;2022-11-20T15:49:57;5.20;99.90
6822;DHT22;3449;48.728;8.968;2022-11-20T15:52:25;5.20;99.90
6822;DHT22;3449;48.728;8.968;2022-11-20T15:54:52;5.10;99.90
6822;DHT22;3449;48.728;8.968;2022-11-20T15:57:19;5.10;99.90
6822;DHT22;3449;48.728;8.968;2022-11-20T15:59:46;5.20;99.90
6822;DHT22;3449;48.728;8.968;2022-11-20T16:02:13;5.10;99.90
6822;DHT22;3449;48.728;8.968;2022-11-20T16:04:40;5.10;99.90
6822;DHT22;3449;48.728;8.968;2022-11-20T16:07:07;5.10;99.90
6822;DHT22;3449;48.728;8.968;2022-11-20T16:09:36;5.10;99.90
6822;DHT22;3449;48.728;8.968;2022-11-20T16:12:03;5.10;99.90
6822;DHT22;3449;48.728;8.968;2022-11-20T16:14:32;5.10;99.90
6822;DHT22;3449;48.728;8.968;2022-11-20T16:17:17;5.10;99.90
6822;DHT22;3449;48.728;8.968;2022-11-20T16:20:04;5.10;99.90
6822;DHT22;3449;48.728;8.968;2022-11-20T16:22:31;5.10;99.90
6822;DHT22;3449;48.728;8.968;2022-11-20T16:25:00;5.10;99.90
6822;DHT22;3449;48.728;8.968;2022-11-20T16:27:27;5.10;99.90
6822;DHT22;3449;48.728;8.968;2022-11-20T16:29:53;5.10;99.90
6822;DHT22;3449;48.728;8.968;2022-11-20T16:32:20;5.10;99.90
6822;DHT22;3449;48.728;8.968;2022-11-20T16:34:47;5.10;99.90
6822;DHT22;3449;48.728;8.968;2022-11-20T16:37:14;5.10;99.90
6822;DHT22;3449;48.728;8.968;2022-11-20T16:39:41;5.10;99.90